Time;durP1;ratioP1;P1;durP2;ratioP2;P2;SDS_P1;SDS_P2;PMS_P1;PMS_P2;Temp;Humidity;BMP_temperature;BMP_pressure;BME280_temperature;BME280_humidity;BME280_pressure;Samples;Min_cycle;Max_cycle;Signal;HPM_P1;HPM_P2
2023/07/11 00:01:17;;;;;;;;;;;;;;;30.47;46.09;97121.13;4233854;28;5699;-62
2023/07/11 00:03:19;;;;;;;;;;;;;;;30.47;46.30;97117.56;4233688;28;5758;-62
2023/07/11 00:05:24;;;;;;;;;;;;;;;30.46;46.23;97116.75;4234365;28;6295;-62
2023/07/11 00:07:27;;;;;;;;;;;;;;;30.45;46.41;97115.16;4235183;28;5884;-62
2023/07/11 00:09:30;;;;;;;;;;;;;;;30.44;46.47;97113.53;4232370;28;5505;-62
2023/07/11 00:11:33;;;;;;;;;;;;;;;30.44;46.11;97113.53;4237076;28;6481;-63
2023/07/11 00:13:36;;;;;;;;;;;;;;;30.43;46.39;97120.13;4236843;28;5798;-62
2023/07/11 00:15:40;;;;;;;;;;;;;;;30.44;46.61;97113.53;4236902;28;5764;-63
2023/07/11 00:17:43;;;;;;;;;;;;;;;30.43;46.64;97117.41;4236500;28;5649;-62
2023/07/11 00:19:48;;;;;;;;;;;;;;;30.42;46.67;97118.50;4236680;28;5516;-62
2023/07/11 00:21:52;;;;;;;;;;;;;;;30.41;46.94;97114.19;4236761;28;5771;-62
2023/07/11 00:24:03;;;;;;;;;;;;;;;30.40;46.43;97116.09;4235712;27;5613;-62
2023/07/11 00:26:06;;;;;;;;;;;;;;;30.37;46.99;97119.47;4226238;28;5696;-62
2023/07/11 00:28:10;;;;;;;;;;;;;;;30.36;46.92;97119.78;4236680;28;5707;-63
2023/07/11 00:30:13;;;;;;;;;;;;;;;30.37;46.76;97110.47;4236455;28;5811;-63
2023/07/11 00:32:16;;;;;;;;;;;;;;;30.36;46.87;97106.94;4236623;28;5686;-62
2023/07/11 00:34:19;;;;;;;;;;;;;;;30.36;46.98;97095.25;4236248;28;5691;-62
2023/07/11 00:36:22;;;;;;;;;;;;;;;30.38;46.84;97103.91;4236555;28;5819;-63
2023/07/11 00:38:27;;;;;;;;;;;;;;;30.37;47.01;97102.31;4236437;28;5602;-62
2023/07/11 00:40:30;;;;;;;;;;;;;;;30.36;47.05;97100.69;4229514;28;6512;-62
2023/07/11 00:42:33;;;;;;;;;;;;;;;30.35;47.00;97099.06;4236049;28;5676;-62
2023/07/11 00:44:50;;;;;;;;;;;;;;;30.34;47.03;97102.91;4236384;28;5798;-62
2023/07/11 00:46:53;;;;;;;;;;;;;;;30.33;47.38;97098.56;4236507;28;5600;-62
2023/07/11 00:48:58;;;;;;;;;;;;;;;30.32;47.16;97102.41;4235220;28;5861;-63
2023/07/11 00:51:00;;;;;;;;;;;;;;;30.31;47.15;97107.06;4236221;28;5691;-62
2023/07/11 00:53:03;;;;;;;;;;;;;;;30.32;47.20;97097.75;4219351;28;5608;-62
2023/07/11 00:55:11;;;;;;;;;;;;;;;30.33;47.33;97093.13;4236483;28;5590;-62
2023/07/11 00:57:15;;;;;;;;;;;;;;;30.31;47.15;97096.16;4235489;27;5606;-62
2023/07/11 00:59:23;;;;;;;;;;;;;;;30.32;47.48;97096.97;4236216;28;5702;-62
2023/07/11 01:01:27;;;;;;;;;;;;;;;30.32;47.31;97096.97;4227744;28;5688;-62
2023/07/11 01:03:30;;;;;;;;;;;;;;;30.32;47.03;97099.69;4235958;28;5680;-62
2023/07/11 01:05:34;;;;;;;;;;;;;;;30.30;47.49;97101.94;4236892;27;5608;-62
2023/07/11 01:07:38;;;;;;;;;;;;;;;30.29;47.34;97103.06;4235729;28;5614;-62
2023/07/11 01:09:41;;;;;;;;;;;;;;;30.28;47.42;97101.44;4235838;28;5830;-62
2023/07/11 01:11:55;;;;;;;;;;;;;;;30.26;47.33;97098.22;4238796;27;5590;-62
2023/07/11 01:13:58;;;;;;;;;;;;;;;30.24;47.24;97084.91;4235619;27;5593;-61
2023/07/11 01:16:01;;;;;;;;;;;;;;;30.27;47.19;97088.94;4235581;28;5695;-62
2023/07/11 01:18:04;;;;;;;;;;;;;;;30.26;47.37;97084.59;4232399;28;5680;-63
2023/07/11 01:20:10;;;;;;;;;;;;;;;30.24;47.22;97084.09;4236096;28;5609;-62
2023/07/11 01:22:14;;;;;;;;;;;;;;;30.23;47.36;97082.47;4235708;28;5589;-63
2023/07/11 01:24:17;;;;;;;;;;;;;;;30.22;47.44;97081.66;4235780;28;5719;-63
2023/07/11 01:26:20;;;;;;;;;;;;;;;30.20;47.44;97078.47;4234849;28;5597;-62
2023/07/11 01:28:25;;;;;;;;;;;;;;;30.21;47.56;97079.25;4235877;28;5903;-62
2023/07/11 01:30:27;;;;;;;;;;;;;;;30.21;47.68;97079.25;4234256;27;5782;-63
2023/07/11 01:32:31;;;;;;;;;;;;;;;30.20;47.54;97077.66;4235455;28;5513;-62
2023/07/11 01:34:33;;;;;;;;;;;;;;;30.19;47.45;97079.56;4234993;28;5597;-63
2023/07/11 01:36:36;;;;;;;;;;;;;;;30.16;47.41;97060.31;4222250;28;5608;-62
2023/07/11 01:38:41;;;;;;;;;;;;;;;30.12;47.57;97066.38;4232703;28;5586;-62
2023/07/11 01:40:44;;;;;;;;;;;;;;;30.12;47.33;97065.56;4235706;28;5778;-61
2023/07/11 01:42:48;;;;;;;;;;;;;;;30.10;47.42;97063.16;4234398;28;5793;-63
2023/07/11 01:44:51;;;;;;;;;;;;;;;30.09;47.29;97066.22;4234373;27;5692;-62
2023/07/11 01:46:54;;;;;;;;;;;;;;;30.06;47.47;97064.91;4234698;28;5847;-62
2023/07/11 01:48:57;;;;;;;;;;;;;;;30.05;47.45;97060.56;4235283;28;5820;-62
2023/07/11 01:51:00;;;;;;;;;;;;;;;30.06;47.48;97061.38;4235418;28;5698;-62
2023/07/11 01:53:03;;;;;;;;;;;;;;;30.06;47.20;97062.19;4226620;28;5795;-62
2023/07/11 01:55:11;;;;;;;;;;;;;;;30.07;47.49;97065.72;4235311;28;6504;-62
2023/07/11 01:57:14;;;;;;;;;;;;;;;30.07;47.22;97068.44;4235292;28;6385;-62
2023/07/11 01:59:17;;;;;;;;;;;;;;;30.08;47.36;97064.59;4235236;28;7728;-62
2023/07/11 02:01:20;;;;;;;;;;;;;;;30.08;47.28;97070.84;4233662;28;6159;-62
2023/07/11 02:03:23;;;;;;;;;;;;;;;30.05;47.20;97060.56;4234093;28;5691;-62
2023/07/11 02:05:26;;;;;;;;;;;;;;;30.04;47.28;97056.22;4235285;28;5608;-62
2023/07/11 02:07:29;;;;;;;;;;;;;;;30.05;47.18;97065.19;4235065;28;5711;-62
2023/07/11 02:09:32;;;;;;;;;;;;;;;30.06;47.19;97061.38;4234897;28;6266;-63
2023/07/11 02:11:37;;;;;;;;;;;;;;;30.07;47.18;97068.44;4235329;28;5710;-62
2023/07/11 02:13:40;;;;;;;;;;;;;;;30.06;47.16;97062.19;4231965;27;5692;-62
2023/07/11 02:15:43;;;;;;;;;;;;;;;30.07;47.18;97063.00;4227919;27;5732;-62
2023/07/11 02:17:46;;;;;;;;;;;;;;;30.06;47.25;97062.19;4233780;28;5695;-62
2023/07/11 02:19:49;;;;;;;;;;;;;;;30.05;47.10;97052.38;4233664;27;5660;-62
2023/07/11 02:21:51;;;;;;;;;;;;;;;30.04;47.06;97053.50;4238317;27;5606;-62
2023/07/11 02:23:54;;;;;;;;;;;;;;;30.03;47.15;97054.63;4234367;28;5642;-62
2023/07/11 02:25:57;;;;;;;;;;;;;;;30.02;47.47;97058.47;4234579;28;5825;-62
2023/07/11 02:28:01;;;;;;;;;;;;;;;29.96;47.54;97056.97;4234297;28;5530;-63
2023/07/11 02:30:05;;;;;;;;;;;;;;;29.95;47.39;97057.28;4234586;28;5617;-62
2023/07/11 02:32:09;;;;;;;;;;;;;;;29.94;47.31;97056.47;4234700;28;5601;-62
2023/07/11 02:34:12;;;;;;;;;;;;;;;29.95;47.24;97060.00;4227402;28;5846;-62
2023/07/11 02:36:15;;;;;;;;;;;;;;;29.94;47.31;97053.75;4233725;28;5645;-62
2023/07/11 02:38:18;;;;;;;;;;;;;;;29.94;47.33;97058.41;4233790;28;5612;-62
2023/07/11 02:40:20;;;;;;;;;;;;;;;29.96;47.30;97058.88;4234518;28;5709;-62
2023/07/11 02:42:23;;;;;;;;;;;;;;;29.95;47.23;97060.81;4231600;28;5640;-62
2023/07/11 02:44:27;;;;;;;;;;;;;;;29.95;47.22;97055.34;4229464;28;5684;-62
2023/07/11 02:46:31;;;;;;;;;;;;;;;29.95;47.31;97063.53;4234627;28;5626;-62
2023/07/11 02:48:32;;;;;;;;;;;;;;;29.94;47.42;97061.94;4233791;27;5595;-63
2023/07/11 02:50:35;;;;;;;;;;;;;;;29.92;47.61;97061.44;4230404;28;5526;-62
2023/07/11 02:52:38;;;;;;;;;;;;;;;29.93;47.74;97063.03;4234549;28;5617;-62
2023/07/11 02:54:41;;;;;;;;;;;;;;;29.91;47.82;97062.56;4234070;28;7765;-63
2023/07/11 02:56:44;;;;;;;;;;;;;;;29.89;47.84;97066.69;4234395;28;5517;-63
2023/07/11 02:58:47;;;;;;;;;;;;;;;29.90;48.01;97062.84;4234310;28;5605;-63
2023/07/11 03:00:55;;;;;;;;;;;;;;;29.90;48.23;97066.41;4234224;28;5509;-63
2023/07/11 03:02:57;;;;;;;;;;;;;;;29.89;48.36;97067.50;4234351;28;5602;-63
2023/07/11 03:05:00;;;;;;;;;;;;;;;29.88;48.52;97068.59;4233147;28;6292;-61
2023/07/11 03:07:03;;;;;;;;;;;;;;;29.84;48.60;97062.19;4232733;28;5680;-62
2023/07/11 03:09:05;;;;;;;;;;;;;;;29.82;48.45;97058.97;4233102;28;5525;-62
2023/07/11 03:11:08;;;;;;;;;;;;;;;29.80;48.70;97064.72;4233306;28;5782;-62
2023/07/11 03:13:12;;;;;;;;;;;;;;;29.79;48.71;97059.59;4234109;28;6573;-62
2023/07/11 03:15:14;;;;;;;;;;;;;;;29.78;49.08;97066.13;4234291;28;5601;-62
2023/07/11 03:17:19;;;;;;;;;;;;;;;29.76;48.99;97069.19;4231262;27;5908;-62
2023/07/11 03:19:23;;;;;;;;;;;;;;;29.74;49.17;97067.88;4232150;27;5593;-62
2023/07/11 03:21:26;;;;;;;;;;;;;;;29.70;49.38;97072.34;4225644;27;5727;-62
2023/07/11 03:23:30;;;;;;;;;;;;;;;29.67;49.56;97073.75;4222106;27;5719;-61
2023/07/11 03:25:33;;;;;;;;;;;;;;;29.65;49.61;97067.00;4226482;28;5676;-61
2023/07/11 03:27:36;;;;;;;;;;;;;;;29.63;49.51;97066.53;4224377;28;5695;-62
2023/07/11 03:29:38;;;;;;;;;;;;;;;29.62;49.66;97064.91;4226877;27;5608;-62
2023/07/11 03:31:41;;;;;;;;;;;;;;;29.62;49.65;97064.91;4233703;27;5814;-62
2023/07/11 03:33:46;;;;;;;;;;;;;;;29.61;49.67;97061.38;4233742;27;7152;-61
2023/07/11 03:35:50;;;;;;;;;;;;;;;29.56;49.84;97056.88;4243307;27;5570;-62
2023/07/11 03:37:53;;;;;;;;;;;;;;;29.56;49.72;97072.38;4235214;27;6291;-63
2023/07/11 03:39:56;;;;;;;;;;;;;;;29.55;49.97;97068.84;4228687;27;5601;-62
2023/07/11 03:41:59;;;;;;;;;;;;;;;29.55;49.86;97074.31;4236189;27;5783;-63
2023/07/11 03:44:02;;;;;;;;;;;;;;;29.54;49.69;97078.16;4235785;27;5683;-63
2023/07/11 03:46:05;;;;;;;;;;;;;;;29.54;49.93;97075.41;4221740;27;6664;-63
2023/07/11 03:48:08;;;;;;;;;;;;;;;29.54;49.72;97080.88;4237203;28;5703;-62
2023/07/11 03:50:12;;;;;;;;;;;;;;;29.54;50.06;97080.06;4233741;27;5695;-62
2023/07/11 03:52:15;;;;;;;;;;;;;;;29.53;50.11;97073.00;4224725;27;5601;-63
2023/07/11 03:54:18;;;;;;;;;;;;;;;29.54;50.03;97069.16;4225693;27;5823;-63
2023/07/11 03:56:21;;;;;;;;;;;;;;;29.53;49.98;97065.63;4236955;28;5601;-63
2023/07/11 03:58:25;;;;;;;;;;;;;;;29.53;49.93;97068.38;4236997;28;5079;-63
2023/07/11 04:00:28;;;;;;;;;;;;;;;29.52;50.02;97066.75;4237282;28;5687;-63
2023/07/11 04:02:31;;;;;;;;;;;;;;;29.52;50.06;97064.03;4236963;28;5609;-63
2023/07/11 04:04:34;;;;;;;;;;;;;;;29.53;50.02;97064.84;4236732;28;5708;-63
2023/07/11 04:06:39;;;;;;;;;;;;;;;29.51;49.92;97065.16;4237112;28;5696;-62
2023/07/11 04:08:41;;;;;;;;;;;;;;;29.49;49.85;97064.66;4236841;28;5813;-62
2023/07/11 04:10:44;;;;;;;;;;;;;;;29.48;49.93;97065.78;4236952;28;5608;-62
2023/07/11 04:12:47;;;;;;;;;;;;;;;29.47;50.03;97066.91;4235137;27;5681;-63
2023/07/11 04:14:50;;;;;;;;;;;;;;;29.47;49.76;97056.00;4236579;28;5843;-63
2023/07/11 04:16:53;;;;;;;;;;;;;;;29.48;50.00;97063.06;4236646;28;5728;-63
2023/07/11 04:18:56;;;;;;;;;;;;;;;29.49;49.85;97064.66;4236496;28;6521;-63
2023/07/11 04:20:59;;;;;;;;;;;;;;;29.48;49.88;97062.25;4236892;28;5597;-62
2023/07/11 04:23:03;;;;;;;;;;;;;;;29.45;49.88;97060.91;4236282;28;5770;-63
2023/07/11 04:25:07;;;;;;;;;;;;;;;29.44;49.89;97066.66;4236468;28;5811;-63
2023/07/11 04:27:09;;;;;;;;;;;;;;;29.42;49.60;97069.69;4236926;28;5296;-64
2023/07/11 04:29:12;;;;;;;;;;;;;;;29.44;49.79;97064.72;4233819;27;5695;-63
2023/07/11 04:31:15;;;;;;;;;;;;;;;29.44;49.75;97059.28;4236815;28;5833;-63
2023/07/11 04:33:17;;;;;;;;;;;;;;;29.45;49.62;97065.56;4236449;28;5185;-63
2023/07/11 04:35:21;;;;;;;;;;;;;;;29.45;49.54;97069.09;4233739;28;5601;-63
2023/07/11 04:37:24;;;;;;;;;;;;;;;29.44;49.35;97062.00;4235990;28;5695;-63
2023/07/11 04:39:28;;;;;;;;;;;;;;;29.44;49.59;97062.00;4236559;28;5707;-63
2023/07/11 04:41:31;;;;;;;;;;;;;;;29.43;49.49;97063.13;4235758;28;6812;-62
2023/07/11 04:43:34;;;;;;;;;;;;;;;29.45;49.56;97058.19;4236369;28;5609;-63
2023/07/11 04:45:37;;;;;;;;;;;;;;;29.46;49.52;97062.53;4234578;27;5795;-63
2023/07/11 04:47:39;;;;;;;;;;;;;;;29.48;49.41;97064.97;4235496;28;5624;-63
2023/07/11 04:49:42;;;;;;;;;;;;;;;29.50;49.88;97071.72;4235467;28;5593;-63
2023/07/11 04:51:45;;;;;;;;;;;;;;;29.49;49.64;97072.84;4238346;27;5705;-63
2023/07/11 04:53:48;;;;;;;;;;;;;;;29.49;49.41;97069.31;4238126;27;5613;-63
2023/07/11 04:55:56;;;;;;;;;;;;;;;29.48;49.70;97067.69;4235473;28;5601;-63
2023/07/11 04:57:59;;;;;;;;;;;;;;;29.48;49.59;97068.50;4235725;28;5677;-63
2023/07/11 05:00:05;;;;;;;;;;;;;;;29.48;49.62;97067.69;4235537;28;5719;-63
2023/07/11 05:02:08;;;;;;;;;;;;;;;29.48;49.57;97070.41;4233645;27;5605;-63
2023/07/11 05:04:11;;;;;;;;;;;;;;;29.49;49.67;97069.31;4232063;28;5667;-62
2023/07/11 05:06:14;;;;;;;;;;;;;;;29.49;49.68;97064.66;4234606;28;5592;-62
2023/07/11 05:08:17;;;;;;;;;;;;;;;29.49;49.93;97064.66;4234804;28;5505;-63
2023/07/11 05:10:20;;;;;;;;;;;;;;;29.51;49.73;97070.59;4235419;28;5703;-63
2023/07/11 05:12:24;;;;;;;;;;;;;;;29.51;49.79;97067.88;4234051;28;5508;-63
2023/07/11 05:14:27;;;;;;;;;;;;;;;29.50;49.66;97066.28;4235707;28;5763;-63
2023/07/11 05:16:31;;;;;;;;;;;;;;;29.50;49.79;97071.72;4235623;28;5609;-63
2023/07/11 05:18:37;;;;;;;;;;;;;;;29.49;49.88;97064.66;4235150;28;5692;-63
2023/07/11 05:20:40;;;;;;;;;;;;;;;29.49;49.88;97064.66;4229509;28;5728;-63
2023/07/11 05:22:43;;;;;;;;;;;;;;;29.51;49.87;97078.78;4235530;28;5808;-63
2023/07/11 05:24:47;;;;;;;;;;;;;;;29.50;49.75;97073.63;4230384;27;6085;-63
2023/07/11 05:26:50;;;;;;;;;;;;;;;29.48;49.93;97071.22;4233829;28;5775;-63
2023/07/11 05:28:54;;;;;;;;;;;;;;;29.49;50.17;97072.84;4235564;28;5799;-63
2023/07/11 05:30:57;;;;;;;;;;;;;;;29.51;49.95;97065.16;4229023;28;5752;-63
2023/07/11 05:33:00;;;;;;;;;;;;;;;29.55;50.08;97073.50;4235133;28;5695;-62
2023/07/11 05:35:03;;;;;;;;;;;;;;;29.64;49.94;97068.13;4229282;28;5782;-63
2023/07/11 05:37:06;;;;;;;;;;;;;;;29.74;49.93;97065.97;4230856;27;5815;-62
2023/07/11 05:39:11;;;;;;;;;;;;;;;29.83;49.85;97068.75;4231949;28;5717;-62
2023/07/11 05:41:13;;;;;;;;;;;;;;;29.91;49.91;97069.94;4228576;28;5693;-63
2023/07/11 05:43:16;;;;;;;;;;;;;;;29.98;49.77;97071.09;4227777;28;5799;-63
2023/07/11 05:45:20;;;;;;;;;;;;;;;30.03;49.71;97067.44;4229300;28;5931;-63
2023/07/11 05:47:23;;;;;;;;;;;;;;;30.09;49.83;97072.47;4228699;28;5493;-63
2023/07/11 05:49:26;;;;;;;;;;;;;;;30.18;49.48;97072.53;4228649;27;5601;-63
2023/07/11 05:51:29;;;;;;;;;;;;;;;30.25;49.45;97070.16;4231023;28;5679;-63
2023/07/11 05:53:31;;;;;;;;;;;;;;;30.33;49.38;97065.84;4224545;27;5720;-63
2023/07/11 05:55:34;;;;;;;;;;;;;;;30.36;49.37;97060.59;4222224;28;5817;-63
2023/07/11 05:57:37;;;;;;;;;;;;;;;30.42;49.46;97064.78;4234658;28;5598;-63
2023/07/11 05:59:40;;;;;;;;;;;;;;;30.47;49.00;97061.13;4235153;28;5604;-63
2023/07/11 06:01:44;;;;;;;;;;;;;;;30.53;48.88;97065.28;4235500;28;5637;-60
2023/07/11 06:03:50;;;;;;;;;;;;;;;30.59;48.76;97064.03;4233990;27;5624;-64
2023/07/11 06:05:53;;;;;;;;;;;;;;;30.62;48.95;97063.41;4235977;27;5589;-64
2023/07/11 06:07:56;;;;;;;;;;;;;;;30.66;49.07;97063.59;4234932;28;5691;-63
2023/07/11 06:09:59;;;;;;;;;;;;;;;30.68;49.03;97051.25;4238625;27;5759;-64
2023/07/11 06:12:02;;;;;;;;;;;;;;;30.69;48.62;97050.16;4236924;27;5758;-64
2023/07/11 06:14:05;;;;;;;;;;;;;;;30.71;48.70;97052.56;4235852;27;5790;-63
2023/07/11 06:16:12;;;;;;;;;;;;;;;30.73;48.96;97054.97;4234753;28;5824;-64
2023/07/11 06:18:16;;;;;;;;;;;;;;;30.73;48.84;97057.69;4234808;28;6511;-63
2023/07/11 06:20:19;;;;;;;;;;;;;;;30.74;48.88;97051.91;4235061;28;5609;-64
2023/07/11 06:22:22;;;;;;;;;;;;;;;30.73;48.73;97049.50;4235308;28;5691;-64
2023/07/11 06:24:25;;;;;;;;;;;;;;;30.75;48.88;97055.44;4226339;28;5593;-64
2023/07/11 06:26:27;;;;;;;;;;;;;;;30.75;48.76;97047.25;4234189;27;5676;-64
2023/07/11 06:28:30;;;;;;;;;;;;;;;30.74;48.95;97042.94;4235007;28;5867;-64
2023/07/11 06:30:33;;;;;;;;;;;;;;;30.75;48.87;97052.72;4216744;28;5612;-64
2023/07/11 06:32:36;;;;;;;;;;;;;;;30.77;48.87;97039.56;4234139;28;5774;-64
2023/07/11 06:34:40;;;;;;;;;;;;;;;30.77;48.66;97042.28;4234229;28;5699;-62
2023/07/11 06:36:43;;;;;;;;;;;;;;;30.77;48.52;97043.09;4235064;28;6393;-63
2023/07/11 06:38:46;;;;;;;;;;;;;;;30.79;48.59;97045.50;4234873;28;5824;-63
2023/07/11 06:40:50;;;;;;;;;;;;;;;30.79;48.71;97040.84;4234691;28;6437;-62
2023/07/11 06:42:52;;;;;;;;;;;;;;;30.82;48.39;97040.22;4234571;28;5706;-62
2023/07/11 06:44:56;;;;;;;;;;;;;;;30.82;48.61;97032.03;4233319;27;5771;-63
2023/07/11 06:46:59;;;;;;;;;;;;;;;30.81;48.63;97026.91;4234421;28;5098;-63
2023/07/11 06:49:02;;;;;;;;;;;;;;;30.82;48.35;97031.22;4234080;28;6476;-63
2023/07/11 06:51:06;;;;;;;;;;;;;;;30.85;48.29;97027.84;4234564;28;5691;-63
2023/07/11 06:53:10;;;;;;;;;;;;;;;30.87;48.71;97031.06;4234306;28;5716;-63
2023/07/11 06:55:13;;;;;;;;;;;;;;;30.87;48.65;97026.41;4234598;28;5613;-63
2023/07/11 06:57:18;;;;;;;;;;;;;;;30.91;48.41;97026.56;4234378;28;5722;-64
2023/07/11 06:59:22;;;;;;;;;;;;;;;30.90;48.53;97031.22;4233578;27;5870;-64
2023/07/11 07:01:26;;;;;;;;;;;;;;;30.90;48.08;97019.50;4224135;27;5959;-64
2023/07/11 07:03:40;;;;;;;;;;;;;;;30.89;48.25;97023.34;4228148;28;5812;-64
2023/07/11 07:05:48;;;;;;;;;;;;;;;30.88;48.46;97021.75;4231338;28;6391;-64
2023/07/11 07:07:52;;;;;;;;;;;;;;;30.86;48.17;97019.34;4229936;27;6341;-63
2023/07/11 07:10:14;;;;;;;;;;;;;;;30.84;48.23;97023.53;4222127;27;5095;-63
2023/07/11 07:12:18;;;;;;;;;;;;;;;30.79;48.44;97008.09;4229941;28;5692;-63
2023/07/11 07:14:23;;;;;;;;;;;;;;;30.77;48.29;97013.06;4227494;28;5788;-63
2023/07/11 07:16:28;;;;;;;;;;;;;;;30.74;48.13;97010.97;4232533;28;5676;-64
2023/07/11 07:18:34;;;;;;;;;;;;;;;30.73;48.41;97014.84;4232100;28;7718;-64
2023/07/11 07:20:37;;;;;;;;;;;;;;;30.71;48.50;97006.97;4229315;28;5786;-63
2023/07/11 07:22:55;;;;;;;;;;;;;;;30.69;48.59;97006.50;4232919;28;5827;-64
2023/07/11 07:24:58;;;;;;;;;;;;;;;30.68;48.35;97004.06;4233553;28;5702;-63
2023/07/11 07:27:14;;;;;;;;;;;;;;;30.67;48.17;97007.91;4227775;28;5682;-63
2023/07/11 07:29:30;;;;;;;;;;;;;;;30.61;48.27;97007.22;4232781;28;5592;-63
2023/07/11 07:31:33;;;;;;;;;;;;;;;30.60;48.34;97005.63;4228777;28;7698;-63
2023/07/11 07:33:36;;;;;;;;;;;;;;;30.58;48.52;96999.69;4228919;28;5693;-63
2023/07/11 07:35:40;;;;;;;;;;;;;;;30.55;48.43;96999.50;4229291;27;5586;-63
2023/07/11 07:37:43;;;;;;;;;;;;;;;30.52;48.33;96992.75;4232759;28;5692;-63
2023/07/11 07:39:47;;;;;;;;;;;;;;;30.52;48.20;96997.41;4233061;28;5597;-63
2023/07/11 07:41:50;;;;;;;;;;;;;;;30.50;48.25;96992.28;4232475;28;5602;-63
2023/07/11 07:43:53;;;;;;;;;;;;;;;30.49;48.69;96989.88;4233815;28;5614;-61
2023/07/11 07:45:58;;;;;;;;;;;;;;;30.47;48.49;96983.91;4232715;28;5887;-63
2023/07/11 07:48:01;;;;;;;;;;;;;;;30.46;48.69;96994.00;4228925;28;5672;-63
2023/07/11 07:50:05;;;;;;;;;;;;;;;30.43;48.52;96997.38;4230722;28;5597;-63
2023/07/11 07:52:08;;;;;;;;;;;;;;;30.37;48.19;96991.28;4233038;28;5718;-63
2023/07/11 07:54:11;;;;;;;;;;;;;;;30.31;48.50;96997.97;4232854;28;5679;-65
2023/07/11 07:56:17;;;;;;;;;;;;;;;30.30;48.49;96993.66;4233409;28;5597;-62
2023/07/11 07:58:20;;;;;;;;;;;;;;;30.30;48.12;96987.41;4233682;28;5709;-63
2023/07/11 08:00:43;;;;;;;;;;;;;;;30.31;48.03;96991.72;4230351;28;5612;-65
2023/07/11 08:02:46;;;;;;;;;;;;;;;30.32;48.02;96990.59;4231486;27;5798;-62
2023/07/11 08:04:49;;;;;;;;;;;;;;;30.32;48.05;96983.22;4230539;28;5605;-63
2023/07/11 08:06:52;;;;;;;;;;;;;;;30.32;48.17;96979.69;4232204;28;5608;-63
2023/07/11 08:08:55;;;;;;;;;;;;;;;30.32;47.84;96982.44;4230500;28;5610;-63
2023/07/11 08:11:00;;;;;;;;;;;;;;;30.33;48.12;96978.56;4230826;28;5601;-63
2023/07/11 08:13:04;;;;;;;;;;;;;;;30.26;47.58;96978.25;4223461;28;5589;-63
2023/07/11 08:15:11;;;;;;;;;;;;;;;30.19;47.45;96969.72;4232196;28;5775;-63
2023/07/11 08:17:14;;;;;;;;;;;;;;;30.16;47.52;96970.34;4226670;28;5688;-62
2023/07/11 08:19:18;;;;;;;;;;;;;;;30.17;47.33;96969.22;4231569;28;6297;-63
2023/07/11 08:21:21;;;;;;;;;;;;;;;30.19;47.15;96967.78;4228414;27;5732;-62
2023/07/11 08:23:24;;;;;;;;;;;;;;;30.20;47.24;96961.22;4226871;28;5841;-62
2023/07/11 08:25:27;;;;;;;;;;;;;;;30.23;46.91;96959.78;4231220;28;6782;-63
2023/07/11 08:27:30;;;;;;;;;;;;;;;30.23;46.95;96967.94;4233637;28;5505;-62
2023/07/11 08:29:34;;;;;;;;;;;;;;;30.21;46.62;96954.63;4238795;27;5111;-63
2023/07/11 08:31:37;;;;;;;;;;;;;;;30.23;46.71;96960.56;4231592;28;6441;-62
2023/07/11 08:33:40;;;;;;;;;;;;;;;30.23;46.65;96951.59;4230048;28;5784;-63
2023/07/11 08:35:43;;;;;;;;;;;;;;;30.23;46.23;96957.84;4233579;27;5785;-60
2023/07/11 08:37:45;;;;;;;;;;;;;;;30.24;46.33;96958.66;4235115;28;5747;-62
2023/07/11 08:39:48;;;;;;;;;;;;;;;30.25;46.18;96952.09;4234359;28;5687;-61
2023/07/11 08:41:53;;;;;;;;;;;;;;;30.24;46.17;96950.47;4234723;28;5687;-61
2023/07/11 08:44:03;;;;;;;;;;;;;;;30.26;45.97;96950.97;4235046;28;5605;-61
2023/07/11 08:46:11;;;;;;;;;;;;;;;30.26;45.77;96946.34;4229922;28;6389;-61
2023/07/11 08:48:19;;;;;;;;;;;;;;;30.28;45.55;96944.09;4234546;28;5613;-61
2023/07/11 08:50:27;;;;;;;;;;;;;;;30.27;45.23;96941.69;4235179;28;5729;-61
2023/07/11 08:52:32;;;;;;;;;;;;;;;30.28;45.46;96932.38;4233333;27;5846;-60
2023/07/11 08:54:41;;;;;;;;;;;;;;;30.29;45.40;96923.88;4232864;28;5668;-60
2023/07/11 08:56:47;;;;;;;;;;;;;;;30.30;45.05;96925.47;4215597;28;5611;-60
2023/07/11 08:58:51;;;;;;;;;;;;;;;30.30;45.06;96924.69;4229259;28;6407;-60
2023/07/11 09:00:54;;;;;;;;;;;;;;;30.31;44.91;96920.81;4233500;28;5596;-61
2023/07/11 09:03:04;;;;;;;;;;;;;;;30.32;44.77;96916.97;4233657;28;5744;-60
2023/07/11 09:05:16;;;;;;;;;;;;;;;30.34;44.60;96920.19;4235242;28;5501;-60
2023/07/11 09:07:27;;;;;;;;;;;;;;;30.35;44.48;96919.06;4235365;28;5616;-60
2023/07/11 09:09:30;;;;;;;;;;;;;;;30.35;44.39;96919.06;4233980;27;5687;-61
2023/07/11 09:11:40;;;;;;;;;;;;;;;30.35;44.10;96916.34;4235907;28;5695;-61
2023/07/11 09:13:54;;;;;;;;;;;;;;;30.34;43.73;96920.19;4235578;28;5813;-61
2023/07/11 09:16:06;;;;;;;;;;;;;;;30.36;43.88;96917.97;4234523;28;5701;-60
2023/07/11 09:18:21;;;;;;;;;;;;;;;30.36;43.69;96912.50;4225590;28;5596;-60
2023/07/11 09:20:34;;;;;;;;;;;;;;;30.36;43.26;96920.69;4229188;28;5596;-62
2023/07/11 09:22:48;;;;;;;;;;;;;;;30.38;43.67;96910.25;4231231;28;5597;-62
2023/07/11 09:24:57;;;;;;;;;;;;;;;30.38;43.18;96905.63;4229527;28;5758;-62
2023/07/11 09:27:13;;;;;;;;;;;;;;;30.41;43.30;96899.50;4222422;27;5942;-62
2023/07/11 09:29:18;;;;;;;;;;;;;;;30.43;43.29;96899.19;4228216;27;5630;-62
2023/07/11 09:31:22;;;;;;;;;;;;;;;30.46;43.25;96895.81;4233803;28;5796;-62
2023/07/11 09:33:31;;;;;;;;;;;;;;;30.48;43.07;96899.06;4231917;28;6500;-62
2023/07/11 09:35:35;;;;;;;;;;;;;;;30.49;42.85;96897.94;4227270;28;5617;-62
2023/07/11 09:37:42;;;;;;;;;;;;;;;30.51;43.12;96895.69;4228555;28;5683;-59
2023/07/11 09:39:50;;;;;;;;;;;;;;;30.54;43.08;96892.31;4231702;27;6532;-62
2023/07/11 09:41:59;;;;;;;;;;;;;;;30.54;42.91;96891.50;4221151;27;5679;-62
2023/07/11 09:44:02;;;;;;;;;;;;;;;30.53;42.96;96881.72;4234902;28;6540;-62
2023/07/11 09:46:12;;;;;;;;;;;;;;;30.51;42.44;96873.84;4234740;28;5690;-62
2023/07/11 09:48:18;;;;;;;;;;;;;;;30.53;42.77;96876.25;4234195;27;5727;-62
2023/07/11 09:50:32;;;;;;;;;;;;;;;30.55;42.56;96866.63;4235512;28;5703;-62
2023/07/11 09:52:47;;;;;;;;;;;;;;;30.56;42.38;96873.69;4235238;28;5850;-62
2023/07/11 09:54:50;;;;;;;;;;;;;;;30.58;42.01;96870.63;4235190;28;5723;-60
2023/07/11 09:57:10;;;;;;;;;;;;;;;30.60;42.38;96869.22;4227862;28;5679;-60
2023/07/11 09:59:14;;;;;;;;;;;;;;;30.61;42.06;96865.38;4235472;28;5874;-61
2023/07/11 10:01:23;;;;;;;;;;;;;;;30.62;41.92;96864.25;4235337;28;5597;-60
2023/07/11 10:03:27;;;;;;;;;;;;;;;30.64;41.84;96861.22;4235138;28;5671;-60
2023/07/11 10:05:33;;;;;;;;;;;;;;;30.65;41.68;96860.09;4217788;28;5699;-60
2023/07/11 10:07:36;;;;;;;;;;;;;;;30.66;41.60;96850.78;4230473;28;5605;-60
2023/07/11 10:09:46;;;;;;;;;;;;;;;30.67;41.78;96853.19;4235236;28;5625;-60
2023/07/11 10:11:54;;;;;;;;;;;;;;;30.66;41.54;96854.31;4235095;28;5676;-60
2023/07/11 10:13:57;;;;;;;;;;;;;;;30.67;41.56;96855.09;4235315;28;5597;-60
2023/07/11 10:16:01;;;;;;;;;;;;;;;30.67;41.80;96850.44;4235095;28;5703;-60
2023/07/11 10:18:03;;;;;;;;;;;;;;;30.65;41.68;96855.44;4228648;27;5107;-61
2023/07/11 10:20:15;;;;;;;;;;;;;;;30.63;41.48;96852.22;4227000;27;5687;-61
2023/07/11 10:22:26;;;;;;;;;;;;;;;30.64;41.24;96844.84;4225740;27;5810;-61
2023/07/11 10:24:39;;;;;;;;;;;;;;;30.66;41.21;96846.13;4218131;28;5691;-60
2023/07/11 10:26:42;;;;;;;;;;;;;;;30.65;41.03;96849.19;4230139;27;5742;-60
2023/07/11 10:28:47;;;;;;;;;;;;;;;30.65;40.87;96844.53;4232362;27;5581;-60
2023/07/11 10:30:51;;;;;;;;;;;;;;;30.66;40.65;96834.41;4228744;27;5621;-60
2023/07/11 10:32:58;;;;;;;;;;;;;;;30.69;40.62;96834.59;4233854;27;5816;-60
2023/07/11 10:35:22;;;;;;;;;;;;;;;30.74;40.58;96835.53;4232819;28;5687;-60
2023/07/11 10:37:32;;;;;;;;;;;;;;;30.76;40.71;96833.28;4229206;27;5761;-60
2023/07/11 10:39:41;;;;;;;;;;;;;;;30.77;40.48;96829.44;4223965;28;6510;-60
2023/07/11 10:41:51;;;;;;;;;;;;;;;30.78;40.55;96825.56;4234658;28;5577;-60
2023/07/11 10:43:55;;;;;;;;;;;;;;;30.80;40.60;96823.31;4232696;28;5739;-60
2023/07/11 10:46:05;;;;;;;;;;;;;;;30.83;40.58;96817.22;4240086;27;5582;-61
2023/07/11 10:48:24;;;;;;;;;;;;;;;30.85;40.58;96809.53;4225969;28;6110;-61
2023/07/11 10:50:40;;;;;;;;;;;;;;;30.89;40.37;96813.19;4234274;28;5699;-62
2023/07/11 10:52:51;;;;;;;;;;;;;;;30.90;40.56;96801.94;4229557;27;5761;-60
2023/07/11 10:55:00;;;;;;;;;;;;;;;30.93;40.25;96795.06;4232339;27;5601;-60
2023/07/11 10:57:14;;;;;;;;;;;;;;;30.92;39.99;96788.81;4232644;27;5800;-61
2023/07/11 10:59:22;;;;;;;;;;;;;;;30.95;40.09;96787.34;4225275;27;5249;-61